sensor_id;sensor_type;location;lat;lon;timestamp;temperature;humidity
47576;DHT22;33304;52.456;13.328;2022-08-21T00:00:12;19.60;99.90
47576;DHT22;33304;52.456;13.328;2022-08-21T00:02:46;19.60;99.90
47576;DHT22;33304;52.456;13.328;2022-08-21T00:05:13;19.60;99.90
47576;DHT22;33304;52.456;13.328;2022-08-21T00:07:41;19.60;99.90
47576;DHT22;33304;52.456;13.328;2022-08-21T00:10:10;19.50;99.90
47576;DHT22;33304;52.456;13.328;2022-08-21T00:12:37;19.60;99.90
47576;DHT22;33304;52.456;13.328;2022-08-21T00:15:06;19.60;99.90
47576;DHT22;33304;52.456;13.328;2022-08-21T00:17:34;19.50;99.90
47576;DHT22;33304;52.456;13.328;2022-08-21T00:20:01;19.40;99.90
47576;DHT22;33304;52.456;13.328;2022-08-21T00:22:29;19.40;99.90
47576;DHT22;33304;52.456;13.328;2022-08-21T00:24:56;19.40;99.90
47576;DHT22;33304;52.456;13.328;2022-08-21T00:27:25;19.40;99.90
47576;DHT22;33304;52.456;13.328;2022-08-21T00:29:52;19.40;99.90
47576;DHT22;33304;52.456;13.328;2022-08-21T00:32:23;19.30;99.90
47576;DHT22;33304;52.456;13.328;2022-08-21T00:34:50;19.30;99.90
47576;DHT22;33304;52.456;13.328;2022-08-21T00:37:18;19.30;99.90
47576;DHT22;33304;52.456;13.328;2022-08-21T00:39:46;19.20;99.90
47576;DHT22;33304;52.456;13.328;2022-08-21T00:42:14;19.40;99.90
47576;DHT22;33304;52.456;13.328;2022-08-21T00:44:44;19.50;99.90
47576;DHT22;33304;52.456;13.328;2022-08-21T00:47:12;19.40;99.90
47576;DHT22;33304;52.456;13.328;2022-08-21T00:49:40;19.40;99.90
47576;DHT22;33304;52.456;13.328;2022-08-21T00:52:11;19.30;99.90
47576;DHT22;33304;52.456;13.328;2022-08-21T00:54:40;19.30;99.90
47576;DHT22;33304;52.456;13.328;2022-08-21T00:57:12;19.20;99.90
47576;DHT22;33304;52.456;13.328;2022-08-21T00:59:40;19.20;99.90
47576;DHT22;33304;52.456;13.328;2022-08-21T01:02:11;19.10;99.90
47576;DHT22;33304;52.456;13.328;2022-08-21T01:04:38;19.20;99.90
47576;DHT22;33304;52.456;13.328;2022-08-21T01:07:05;19.20;99.90
47576;DHT22;33304;52.456;13.328;2022-08-21T01:09:33;19.10;99.90
47576;DHT22;33304;52.456;13.328;2022-08-21T01:12:00;19.10;99.90
47576;DHT22;33304;52.456;13.328;2022-08-21T01:14:29;19.00;99.90
47576;DHT22;33304;52.456;13.328;2022-08-21T01:16:58;19.00;99.90
47576;DHT22;33304;52.456;13.328;2022-08-21T01:19:27;19.00;99.90
47576;DHT22;33304;52.456;13.328;2022-08-21T01:21:56;18.90;99.90
47576;DHT22;33304;52.456;13.328;2022-08-21T01:24:23;18.90;99.90
47576;DHT22;33304;52.456;13.328;2022-08-21T01:26:51;18.90;99.90
47576;DHT22;33304;52.456;13.328;2022-08-21T01:29:26;18.90;99.90
47576;DHT22;33304;52.456;13.328;2022-08-21T01:31:56;18.90;99.90
47576;DHT22;33304;52.456;13.328;2022-08-21T01:34:24;18.90;99.90
47576;DHT22;33304;52.456;13.328;2022-08-21T01:36:51;18.90;99.90
47576;DHT22;33304;52.456;13.328;2022-08-21T01:39:20;18.90;99.90
47576;DHT22;33304;52.456;13.328;2022-08-21T01:41:47;18.80;99.90
47576;DHT22;33304;52.456;13.328;2022-08-21T01:44:14;18.80;99.90
47576;DHT22;33304;52.456;13.328;2022-08-21T01:46:42;18.80;99.90
47576;DHT22;33304;52.456;13.328;2022-08-21T01:49:09;18.80;99.90
47576;DHT22;33304;52.456;13.328;2022-08-21T01:51:36;18.80;99.90
47576;DHT22;33304;52.456;13.328;2022-08-21T01:54:03;18.80;99.90
47576;DHT22;33304;52.456;13.328;2022-08-21T01:56:37;18.90;99.90
47576;DHT22;33304;52.456;13.328;2022-08-21T01:59:04;18.80;99.90
47576;DHT22;33304;52.456;13.328;2022-08-21T02:01:32;18.80;99.90
47576;DHT22;33304;52.456;13.328;2022-08-21T02:03:59;18.80;97.30
47576;DHT22;33304;52.456;13.328;2022-08-21T02:06:27;18.80;96.60
47576;DHT22;33304;52.456;13.328;2022-08-21T02:08:54;18.80;90.40
47576;DHT22;33304;52.456;13.328;2022-08-21T02:11:21;18.70;87.60
47576;DHT22;33304;52.456;13.328;2022-08-21T02:13:50;18.70;84.10
47576;DHT22;33304;52.456;13.328;2022-08-21T02:16:17;18.60;81.60
47576;DHT22;33304;52.456;13.328;2022-08-21T02:18:44;18.60;81.10
47576;DHT22;33304;52.456;13.328;2022-08-21T02:21:11;18.60;80.20
47576;DHT22;33304;52.456;13.328;2022-08-21T02:23:39;18.60;79.80
47576;DHT22;33304;52.456;13.328;2022-08-21T02:26:07;18.50;78.10
47576;DHT22;33304;52.456;13.328;2022-08-21T02:28:36;18.50;76.20
47576;DHT22;33304;52.456;13.328;2022-08-21T02:31:05;18.50;75.90
47576;DHT22;33304;52.456;13.328;2022-08-21T02:33:33;18.40;76.20
47576;DHT22;33304;52.456;13.328;2022-08-21T02:36:01;18.50;77.70
47576;DHT22;33304;52.456;13.328;2022-08-21T02:38:31;18.50;74.70
47576;DHT22;33304;52.456;13.328;2022-08-21T02:41:01;18.50;74.80
47576;DHT22;33304;52.456;13.328;2022-08-21T02:43:28;18.50;75.10
47576;DHT22;33304;52.456;13.328;2022-08-21T02:45:57;18.40;75.10
47576;DHT22;33304;52.456;13.328;2022-08-21T02:48:29;18.40;76.70
47576;DHT22;33304;52.456;13.328;2022-08-21T02:50:59;18.40;76.30
47576;DHT22;33304;52.456;13.328;2022-08-21T02:53:28;18.30;76.30
47576;DHT22;33304;52.456;13.328;2022-08-21T02:55:57;18.30;75.20
47576;DHT22;33304;52.456;13.328;2022-08-21T02:58:27;18.30;73.10
47576;DHT22;33304;52.456;13.328;2022-08-21T03:00:54;18.30;72.00
47576;DHT22;33304;52.456;13.328;2022-08-21T03:03:22;18.20;70.90
47576;DHT22;33304;52.456;13.328;2022-08-21T03:05:51;18.20;70.40
47576;DHT22;33304;52.456;13.328;2022-08-21T03:08:18;18.10;69.00
47576;DHT22;33304;52.456;13.328;2022-08-21T03:10:48;18.10;68.10
47576;DHT22;33304;52.456;13.328;2022-08-21T03:13:17;18.20;64.40
47576;DHT22;33304;52.456;13.328;2022-08-21T03:15:46;18.20;63.10
47576;DHT22;33304;52.456;13.328;2022-08-21T03:18:14;18.20;60.50
47576;DHT22;33304;52.456;13.328;2022-08-21T03:20:42;18.10;58.70
47576;DHT22;33304;52.456;13.328;2022-08-21T03:23:12;18.10;57.90
47576;DHT22;33304;52.456;13.328;2022-08-21T03:25:40;18.10;57.90
47576;DHT22;33304;52.456;13.328;2022-08-21T03:28:10;18.00;58.00
47576;DHT22;33304;52.456;13.328;2022-08-21T03:30:38;18.00;57.80
47576;DHT22;33304;52.456;13.328;2022-08-21T03:33:05;18.00;57.20
47576;DHT22;33304;52.456;13.328;2022-08-21T03:35:32;18.00;57.20
47576;DHT22;33304;52.456;13.328;2022-08-21T03:38:00;18.00;55.90
47576;DHT22;33304;52.456;13.328;2022-08-21T03:40:28;17.90;55.60
47576;DHT22;33304;52.456;13.328;2022-08-21T03:42:56;17.90;56.30
47576;DHT22;33304;52.456;13.328;2022-08-21T03:45:23;17.90;56.90
47576;DHT22;33304;52.456;13.328;2022-08-21T03:47:52;17.90;57.80
47576;DHT22;33304;52.456;13.328;2022-08-21T03:50:19;18.00;57.40
47576;DHT22;33304;52.456;13.328;2022-08-21T03:52:47;17.90;57.20
47576;DHT22;33304;52.456;13.328;2022-08-21T03:55:14;17.90;58.20
47576;DHT22;33304;52.456;13.328;2022-08-21T03:57:42;17.80;58.30
47576;DHT22;33304;52.456;13.328;2022-08-21T04:00:11;17.90;58.70
47576;DHT22;33304;52.456;13.328;2022-08-21T04:02:39;17.90;59.40
47576;DHT22;33304;52.456;13.328;2022-08-21T04:05:07;17.80;59.70
47576;DHT22;33304;52.456;13.328;2022-08-21T04:07:34;17.90;61.10
47576;DHT22;33304;52.456;13.328;2022-08-21T04:10:02;18.00;59.60
47576;DHT22;33304;52.456;13.328;2022-08-21T04:12:29;17.90;59.40
47576;DHT22;33304;52.456;13.328;2022-08-21T04:14:58;17.80;59.00
47576;DHT22;33304;52.456;13.328;2022-08-21T04:17:27;17.70;59.60
47576;DHT22;33304;52.456;13.328;2022-08-21T04:19:54;17.70;58.60
47576;DHT22;33304;52.456;13.328;2022-08-21T04:22:22;17.70;59.10
47576;DHT22;33304;52.456;13.328;2022-08-21T04:24:49;17.80;58.00
47576;DHT22;33304;52.456;13.328;2022-08-21T04:27:16;17.70;57.90
47576;DHT22;33304;52.456;13.328;2022-08-21T04:29:44;17.70;57.30
47576;DHT22;33304;52.456;13.328;2022-08-21T04:32:12;17.60;57.20
47576;DHT22;33304;52.456;13.328;2022-08-21T04:34:39;17.60;57.30
47576;DHT22;33304;52.456;13.328;2022-08-21T04:37:06;17.60;57.10
47576;DHT22;33304;52.456;13.328;2022-08-21T04:39:33;17.60;56.80
47576;DHT22;33304;52.456;13.328;2022-08-21T04:42:01;17.60;55.80
47576;DHT22;33304;52.456;13.328;2022-08-21T04:44:28;17.60;55.80
47576;DHT22;33304;52.456;13.328;2022-08-21T04:46:55;17.70;55.30
47576;DHT22;33304;52.456;13.328;2022-08-21T04:49:23;17.70;55.60
47576;DHT22;33304;52.456;13.328;2022-08-21T04:51:51;17.70;54.90
47576;DHT22;33304;52.456;13.328;2022-08-21T04:54:20;17.70;54.20
47576;DHT22;33304;52.456;13.328;2022-08-21T04:56:51;17.80;54.20
47576;DHT22;33304;52.456;13.328;2022-08-21T04:59:22;17.70;53.20
47576;DHT22;33304;52.456;13.328;2022-08-21T05:01:51;17.80;53.10
47576;DHT22;33304;52.456;13.328;2022-08-21T05:04:24;17.80;52.90
47576;DHT22;33304;52.456;13.328;2022-08-21T05:06:53;17.90;51.50
47576;DHT22;33304;52.456;13.328;2022-08-21T05:09:22;17.90;52.30
47576;DHT22;33304;52.456;13.328;2022-08-21T05:11:50;17.90;52.40
47576;DHT22;33304;52.456;13.328;2022-08-21T05:14:18;17.90;52.60
47576;DHT22;33304;52.456;13.328;2022-08-21T05:16:46;18.00;52.90
47576;DHT22;33304;52.456;13.328;2022-08-21T05:19:14;18.00;51.90
47576;DHT22;33304;52.456;13.328;2022-08-21T05:21:45;18.00;53.00
47576;DHT22;33304;52.456;13.328;2022-08-21T05:24:14;17.90;53.30
47576;DHT22;33304;52.456;13.328;2022-08-21T05:26:42;17.90;54.40
47576;DHT22;33304;52.456;13.328;2022-08-21T05:29:09;18.00;54.10
47576;DHT22;33304;52.456;13.328;2022-08-21T05:31:37;18.10;53.60
47576;DHT22;33304;52.456;13.328;2022-08-21T05:34:04;18.00;53.80
47576;DHT22;33304;52.456;13.328;2022-08-21T05:36:31;18.00;53.80
47576;DHT22;33304;52.456;13.328;2022-08-21T05:39:00;18.00;52.00
47576;DHT22;33304;52.456;13.328;2022-08-21T05:41:27;18.00;52.50
47576;DHT22;33304;52.456;13.328;2022-08-21T05:43:55;18.00;52.20
47576;DHT22;33304;52.456;13.328;2022-08-21T05:46:22;18.00;52.00
47576;DHT22;33304;52.456;13.328;2022-08-21T05:48:49;18.00;52.00
47576;DHT22;33304;52.456;13.328;2022-08-21T05:51:16;18.20;52.10
47576;DHT22;33304;52.456;13.328;2022-08-21T05:53:44;18.10;50.60
47576;DHT22;33304;52.456;13.328;2022-08-21T05:56:13;17.90;50.90
47576;DHT22;33304;52.456;13.328;2022-08-21T05:58:41;18.00;50.60
47576;DHT22;33304;52.456;13.328;2022-08-21T06:01:09;18.00;51.40
47576;DHT22;33304;52.456;13.328;2022-08-21T06:03:39;18.00;50.40
47576;DHT22;33304;52.456;13.328;2022-08-21T06:06:07;18.20;52.00
47576;DHT22;33304;52.456;13.328;2022-08-21T06:08:34;18.20;50.60
47576;DHT22;33304;52.456;13.328;2022-08-21T06:11:02;18.40;50.80
47576;DHT22;33304;52.456;13.328;2022-08-21T06:13:32;18.40;50.80
47576;DHT22;33304;52.456;13.328;2022-08-21T06:16:07;18.50;49.20
47576;DHT22;33304;52.456;13.328;2022-08-21T06:18:36;18.30;49.60
47576;DHT22;33304;52.456;13.328;2022-08-21T06:21:04;18.20;49.30
47576;DHT22;33304;52.456;13.328;2022-08-21T06:23:32;18.30;50.80
47576;DHT22;33304;52.456;13.328;2022-08-21T06:26:00;18.20;48.50
47576;DHT22;33304;52.456;13.328;2022-08-21T06:28:27;18.40;49.60
47576;DHT22;33304;52.456;13.328;2022-08-21T06:30:56;18.60;47.70
47576;DHT22;33304;52.456;13.328;2022-08-21T06:33:23;18.70;48.10
47576;DHT22;33304;52.456;13.328;2022-08-21T06:35:51;18.70;48.00
47576;DHT22;33304;52.456;13.328;2022-08-21T06:38:18;18.80;48.00
47576;DHT22;33304;52.456;13.328;2022-08-21T06:40:45;18.90;47.30
47576;DHT22;33304;52.456;13.328;2022-08-21T06:43:15;18.80;46.30
47576;DHT22;33304;52.456;13.328;2022-08-21T06:45:42;18.80;47.20
47576;DHT22;33304;52.456;13.328;2022-08-21T06:48:11;19.20;43.30
47576;DHT22;33304;52.456;13.328;2022-08-21T06:50:39;19.40;44.30
47576;DHT22;33304;52.456;13.328;2022-08-21T06:53:08;19.40;42.90
47576;DHT22;33304;52.456;13.328;2022-08-21T06:55:36;19.40;42.10
47576;DHT22;33304;52.456;13.328;2022-08-21T06:58:04;19.40;40.10
47576;DHT22;33304;52.456;13.328;2022-08-21T07:00:32;19.50;40.20
47576;DHT22;33304;52.456;13.328;2022-08-21T07:02:59;19.60;40.30
47576;DHT22;33304;52.456;13.328;2022-08-21T07:05:29;19.70;40.40
47576;DHT22;33304;52.456;13.328;2022-08-21T07:07:57;19.90;39.50
47576;DHT22;33304;52.456;13.328;2022-08-21T07:10:25;19.90;37.50
47576;DHT22;33304;52.456;13.328;2022-08-21T07:12:53;19.90;37.90
47576;DHT22;33304;52.456;13.328;2022-08-21T07:15:21;20.10;36.20
47576;DHT22;33304;52.456;13.328;2022-08-21T07:17:48;20.20;34.60
47576;DHT22;33304;52.456;13.328;2022-08-21T07:20:15;20.00;33.80
47576;DHT22;33304;52.456;13.328;2022-08-21T07:22:44;20.20;35.50
47576;DHT22;33304;52.456;13.328;2022-08-21T07:25:11;20.40;35.80
47576;DHT22;33304;52.456;13.328;2022-08-21T07:27:39;20.20;32.30
47576;DHT22;33304;52.456;13.328;2022-08-21T07:30:07;20.40;33.80
47576;DHT22;33304;52.456;13.328;2022-08-21T07:32:34;20.40;34.50
47576;DHT22;33304;52.456;13.328;2022-08-21T07:35:03;20.70;32.40
47576;DHT22;33304;52.456;13.328;2022-08-21T07:37:30;20.80;33.80
47576;DHT22;33304;52.456;13.328;2022-08-21T07:39:59;21.00;34.30
47576;DHT22;33304;52.456;13.328;2022-08-21T07:42:26;21.10;32.20
47576;DHT22;33304;52.456;13.328;2022-08-21T07:44:54;21.00;28.30
47576;DHT22;33304;52.456;13.328;2022-08-21T07:47:22;21.10;28.40
47576;DHT22;33304;52.456;13.328;2022-08-21T07:49:49;21.20;29.70
47576;DHT22;33304;52.456;13.328;2022-08-21T07:52:17;21.20;25.90
47576;DHT22;33304;52.456;13.328;2022-08-21T07:54:44;21.20;26.20
47576;DHT22;33304;52.456;13.328;2022-08-21T07:57:13;21.50;27.50
47576;DHT22;33304;52.456;13.328;2022-08-21T07:59:40;21.30;26.00
47576;DHT22;33304;52.456;13.328;2022-08-21T08:02:08;21.40;24.70
47576;DHT22;33304;52.456;13.328;2022-08-21T08:04:36;21.50;23.50
47576;DHT22;33304;52.456;13.328;2022-08-21T08:07:03;21.60;23.60
47576;DHT22;33304;52.456;13.328;2022-08-21T08:09:30;21.60;22.80
47576;DHT22;33304;52.456;13.328;2022-08-21T08:11:57;21.80;22.50
47576;DHT22;33304;52.456;13.328;2022-08-21T08:14:26;21.90;22.50
47576;DHT22;33304;52.456;13.328;2022-08-21T08:16:53;22.10;21.80
47576;DHT22;33304;52.456;13.328;2022-08-21T08:19:20;22.10;21.90
47576;DHT22;33304;52.456;13.328;2022-08-21T08:21:47;22.30;21.00
47576;DHT22;33304;52.456;13.328;2022-08-21T08:24:15;22.30;21.00
47576;DHT22;33304;52.456;13.328;2022-08-21T08:26:42;22.30;19.60
47576;DHT22;33304;52.456;13.328;2022-08-21T08:29:09;22.30;21.00
47576;DHT22;33304;52.456;13.328;2022-08-21T08:31:38;22.30;21.00
47576;DHT22;33304;52.456;13.328;2022-08-21T08:34:05;22.30;19.90
47576;DHT22;33304;52.456;13.328;2022-08-21T08:36:34;22.10;19.30
47576;DHT22;33304;52.456;13.328;2022-08-21T08:39:03;22.20;20.40
47576;DHT22;33304;52.456;13.328;2022-08-21T08:41:31;22.30;21.00
47576;DHT22;33304;52.456;13.328;2022-08-21T08:44:02;22.40;20.50
47576;DHT22;33304;52.456;13.328;2022-08-21T08:46:35;22.50;20.30
47576;DHT22;33304;52.456;13.328;2022-08-21T08:49:09;22.50;20.00
47576;DHT22;33304;52.456;13.328;2022-08-21T08:51:43;22.50;21.10
47576;DHT22;33304;52.456;13.328;2022-08-21T08:54:17;22.50;19.30
47576;DHT22;33304;52.456;13.328;2022-08-21T08:56:46;22.50;18.80
47576;DHT22;33304;52.456;13.328;2022-08-21T08:59:15;22.50;19.80
47576;DHT22;33304;52.456;13.328;2022-08-21T09:01:43;22.50;18.30
47576;DHT22;33304;52.456;13.328;2022-08-21T09:04:13;22.60;18.70
47576;DHT22;33304;52.456;13.328;2022-08-21T09:06:50;22.70;17.20
47576;DHT22;33304;52.456;13.328;2022-08-21T09:09:29;22.80;19.20
47576;DHT22;33304;52.456;13.328;2022-08-21T09:12:08;22.90;18.80
47576;DHT22;33304;52.456;13.328;2022-08-21T09:14:50;23.00;17.60
47576;DHT22;33304;52.456;13.328;2022-08-21T09:17:30;23.00;16.90
47576;DHT22;33304;52.456;13.328;2022-08-21T09:20:12;23.00;17.20
47576;DHT22;33304;52.456;13.328;2022-08-21T09:22:49;23.00;16.40
47576;DHT22;33304;52.456;13.328;2022-08-21T09:25:21;22.90;16.00
47576;DHT22;33304;52.456;13.328;2022-08-21T09:27:49;22.90;17.70
47576;DHT22;33304;52.456;13.328;2022-08-21T09:30:18;22.90;16.40
47576;DHT22;33304;52.456;13.328;2022-08-21T09:32:46;22.90;16.70
47576;DHT22;33304;52.456;13.328;2022-08-21T09:35:16;22.90;16.90
47576;DHT22;33304;52.456;13.328;2022-08-21T09:37:50;23.00;17.10
47576;DHT22;33304;52.456;13.328;2022-08-21T09:40:31;23.10;17.10
47576;DHT22;33304;52.456;13.328;2022-08-21T09:43:00;23.20;14.80
47576;DHT22;33304;52.456;13.328;2022-08-21T09:45:28;23.30;15.20
47576;DHT22;33304;52.456;13.328;2022-08-21T09:47:55;23.40;14.70
47576;DHT22;33304;52.456;13.328;2022-08-21T09:50:26;23.50;14.70
47576;DHT22;33304;52.456;13.328;2022-08-21T09:52:57;23.70;15.00
47576;DHT22;33304;52.456;13.328;2022-08-21T09:55:31;23.90;14.20
47576;DHT22;33304;52.456;13.328;2022-08-21T09:58:18;23.90;14.20
47576;DHT22;33304;52.456;13.328;2022-08-21T10:00:56;23.90;12.20
47576;DHT22;33304;52.456;13.328;2022-08-21T10:03:24;24.00;13.80
47576;DHT22;33304;52.456;13.328;2022-08-21T10:05:58;24.20;12.70
47576;DHT22;33304;52.456;13.328;2022-08-21T10:08:28;24.10;12.20
47576;DHT22;33304;52.456;13.328;2022-08-21T10:11:01;24.20;12.30
47576;DHT22;33304;52.456;13.328;2022-08-21T10:13:38;24.40;12.40
47576;DHT22;33304;52.456;13.328;2022-08-21T10:16:16;24.30;12.00
47576;DHT22;33304;52.456;13.328;2022-08-21T10:18:56;24.50;13.10
47576;DHT22;33304;52.456;13.328;2022-08-21T10:21:32;24.60;8.80
47576;DHT22;33304;52.456;13.328;2022-08-21T10:24:07;24.70;9.80
47576;DHT22;33304;52.456;13.328;2022-08-21T10:26:45;24.70;7.40
47576;DHT22;33304;52.456;13.328;2022-08-21T10:29:34;24.80;9.70
47576;DHT22;33304;52.456;13.328;2022-08-21T10:32:13;25.00;9.00
47576;DHT22;33304;52.456;13.328;2022-08-21T10:34:47;25.10;8.20
47576;DHT22;33304;52.456;13.328;2022-08-21T10:37:25;25.00;6.70
47576;DHT22;33304;52.456;13.328;2022-08-21T10:40:06;24.80;6.80
47576;DHT22;33304;52.456;13.328;2022-08-21T10:42:40;24.70;6.50
47576;DHT22;33304;52.456;13.328;2022-08-21T10:45:15;24.60;4.80
47576;DHT22;33304;52.456;13.328;2022-08-21T10:47:49;24.50;2.10
47576;DHT22;33304;52.456;13.328;2022-08-21T10:50:28;24.70;5.70
47576;DHT22;33304;52.456;13.328;2022-08-21T10:53:09;24.90;5.80
47576;DHT22;33304;52.456;13.328;2022-08-21T10:55:44;25.00;4.20
47576;DHT22;33304;52.456;13.328;2022-08-21T10:58:21;25.20;5.40
47576;DHT22;33304;52.456;13.328;2022-08-21T11:00:53;25.50;3.70
47576;DHT22;33304;52.456;13.328;2022-08-21T11:03:27;25.80;5.20
47576;DHT22;33304;52.456;13.328;2022-08-21T11:06:00;26.00;2.90
47576;DHT22;33304;52.456;13.328;2022-08-21T11:08:35;26.10;3.90
47576;DHT22;33304;52.456;13.328;2022-08-21T11:11:08;26.30;3.10
47576;DHT22;33304;52.456;13.328;2022-08-21T11:13:40;26.20;1.50
47576;DHT22;33304;52.456;13.328;2022-08-21T11:16:16;26.30;3.10
47576;DHT22;33304;52.456;13.328;2022-08-21T11:18:49;26.30;3.30
47576;DHT22;33304;52.456;13.328;2022-08-21T11:21:29;26.40;3.20
47576;DHT22;33304;52.456;13.328;2022-08-21T11:24:08;25.90;1.60
47576;DHT22;33304;52.456;13.328;2022-08-21T11:26:43;25.90;1.00
47576;DHT22;33304;52.456;13.328;2022-08-21T11:29:17;25.90;1.10
47576;DHT22;33304;52.456;13.328;2022-08-21T11:31:58;26.50;3.20
47576;DHT22;33304;52.456;13.328;2022-08-21T11:34:40;26.70;2.10
47576;DHT22;33304;52.456;13.328;2022-08-21T11:37:18;27.00;1.00
47576;DHT22;33304;52.456;13.328;2022-08-21T11:39:57;27.20;1.00
47576;DHT22;33304;52.456;13.328;2022-08-21T11:42:33;27.20;1.00
47576;DHT22;33304;52.456;13.328;2022-08-21T11:45:14;27.20;1.00
47576;DHT22;33304;52.456;13.328;2022-08-21T11:47:54;27.40;1.00
47576;DHT22;33304;52.456;13.328;2022-08-21T11:50:27;27.40;1.00
47576;DHT22;33304;52.456;13.328;2022-08-21T11:52:57;27.30;1.00
47576;DHT22;33304;52.456;13.328;2022-08-21T11:55:31;27.30;1.00
47576;DHT22;33304;52.456;13.328;2022-08-21T11:58:03;27.30;1.00
47576;DHT22;33304;52.456;13.328;2022-08-21T12:00:35;27.40;1.00
47576;DHT22;33304;52.456;13.328;2022-08-21T12:03:08;27.40;1.00
47576;DHT22;33304;52.456;13.328;2022-08-21T12:05:39;27.70;1.00
47576;DHT22;33304;52.456;13.328;2022-08-21T12:08:13;27.50;1.00
47576;DHT22;33304;52.456;13.328;2022-08-21T12:10:46;27.80;1.00
47576;DHT22;33304;52.456;13.328;2022-08-21T12:13:25;28.40;1.00
47576;DHT22;33304;52.456;13.328;2022-08-21T12:15:53;28.40;1.00
47576;DHT22;33304;52.456;13.328;2022-08-21T12:18:31;28.80;1.00
47576;DHT22;33304;52.456;13.328;2022-08-21T12:21:05;28.90;1.00
47576;DHT22;33304;52.456;13.328;2022-08-21T12:23:34;29.10;1.00
47576;DHT22;33304;52.456;13.328;2022-08-21T12:26:20;29.40;1.00
47576;DHT22;33304;52.456;13.328;2022-08-21T12:28:49;29.60;1.00
47576;DHT22;33304;52.456;13.328;2022-08-21T12:31:19;29.40;1.00
47576;DHT22;33304;52.456;13.328;2022-08-21T12:33:52;29.20;1.00
47576;DHT22;33304;52.456;13.328;2022-08-21T12:36:23;29.50;1.00
47576;DHT22;33304;52.456;13.328;2022-08-21T12:38:54;30.30;1.00
47576;DHT22;33304;52.456;13.328;2022-08-21T12:41:28;30.80;1.00
47576;DHT22;33304;52.456;13.328;2022-08-21T12:43:59;31.10;1.00
47576;DHT22;33304;52.456;13.328;2022-08-21T12:46:34;31.30;1.00
47576;DHT22;33304;52.456;13.328;2022-08-21T12:49:12;31.00;1.00
47576;DHT22;33304;52.456;13.328;2022-08-21T12:51:48;31.20;1.00
47576;DHT22;33304;52.456;13.328;2022-08-21T12:54:26;31.80;1.00
47576;DHT22;33304;52.456;13.328;2022-08-21T12:57:00;32.60;1.00
47576;DHT22;33304;52.456;13.328;2022-08-21T12:59:28;33.30;1.00
47576;DHT22;33304;52.456;13.328;2022-08-21T13:01:58;34.00;1.00
47576;DHT22;33304;52.456;13.328;2022-08-21T13:04:33;33.50;1.00
47576;DHT22;33304;52.456;13.328;2022-08-21T13:07:07;34.30;1.00
47576;DHT22;33304;52.456;13.328;2022-08-21T13:09:41;34.10;1.00
47576;DHT22;33304;52.456;13.328;2022-08-21T13:12:12;34.10;1.00
47576;DHT22;33304;52.456;13.328;2022-08-21T13:14:42;35.10;1.00
47576;DHT22;33304;52.456;13.328;2022-08-21T13:17:14;34.90;1.00
47576;DHT22;33304;52.456;13.328;2022-08-21T13:19:41;34.60;1.00
47576;DHT22;33304;52.456;13.328;2022-08-21T13:22:13;34.70;1.00
47576;DHT22;33304;52.456;13.328;2022-08-21T13:24:41;34.20;1.00
47576;DHT22;33304;52.456;13.328;2022-08-21T13:27:28;33.20;1.00
47576;DHT22;33304;52.456;13.328;2022-08-21T13:30:08;32.50;1.00
47576;DHT22;33304;52.456;13.328;2022-08-21T13:32:40;32.50;1.00
47576;DHT22;33304;52.456;13.328;2022-08-21T13:35:10;33.50;1.00
47576;DHT22;33304;52.456;13.328;2022-08-21T13:37:40;33.90;1.00
47576;DHT22;33304;52.456;13.328;2022-08-21T13:40:11;34.80;1.00
47576;DHT22;33304;52.456;13.328;2022-08-21T13:42:42;35.80;1.00
47576;DHT22;33304;52.456;13.328;2022-08-21T13:45:17;35.90;1.00
47576;DHT22;33304;52.456;13.328;2022-08-21T13:47:45;36.10;1.00
47576;DHT22;33304;52.456;13.328;2022-08-21T13:50:15;34.90;1.00
47576;DHT22;33304;52.456;13.328;2022-08-21T13:52:53;33.10;1.00
47576;DHT22;33304;52.456;13.328;2022-08-21T13:55:20;33.00;1.00
47576;DHT22;33304;52.456;13.328;2022-08-21T13:57:59;33.70;1.00
47576;DHT22;33304;52.456;13.328;2022-08-21T14:00:29;35.10;1.00
47576;DHT22;33304;52.456;13.328;2022-08-21T14:03:02;35.80;1.00
47576;DHT22;33304;52.456;13.328;2022-08-21T14:05:33;35.60;1.00
47576;DHT22;33304;52.456;13.328;2022-08-21T14:08:07;35.10;1.00
47576;DHT22;33304;52.456;13.328;2022-08-21T14:10:37;34.10;1.00
47576;DHT22;33304;52.456;13.328;2022-08-21T14:13:29;32.80;1.00
47576;DHT22;33304;52.456;13.328;2022-08-21T14:15:59;32.30;1.00
47576;DHT22;33304;52.456;13.328;2022-08-21T14:18:27;32.30;1.00
47576;DHT22;33304;52.456;13.328;2022-08-21T14:21:04;32.40;1.00
47576;DHT22;33304;52.456;13.328;2022-08-21T14:23:31;33.70;1.00
47576;DHT22;33304;52.456;13.328;2022-08-21T14:26:00;34.40;1.00
47576;DHT22;33304;52.456;13.328;2022-08-21T14:28:31;34.30;1.00
47576;DHT22;33304;52.456;13.328;2022-08-21T14:31:11;33.30;1.00
47576;DHT22;33304;52.456;13.328;2022-08-21T14:33:39;32.40;1.00
47576;DHT22;33304;52.456;13.328;2022-08-21T14:36:07;31.40;1.00
47576;DHT22;33304;52.456;13.328;2022-08-21T14:38:36;30.80;1.00
47576;DHT22;33304;52.456;13.328;2022-08-21T14:41:11;30.30;1.00
47576;DHT22;33304;52.456;13.328;2022-08-21T14:43:40;29.60;1.00
47576;DHT22;33304;52.456;13.328;2022-08-21T14:46:07;29.40;1.00
47576;DHT22;33304;52.456;13.328;2022-08-21T14:48:35;29.20;1.00
47576;DHT22;33304;52.456;13.328;2022-08-21T14:51:02;29.60;1.00
47576;DHT22;33304;52.456;13.328;2022-08-21T14:53:29;30.50;1.00
47576;DHT22;33304;52.456;13.328;2022-08-21T14:55:56;31.60;1.00
47576;DHT22;33304;52.456;13.328;2022-08-21T14:58:35;31.90;1.00
47576;DHT22;33304;52.456;13.328;2022-08-21T15:01:04;31.90;1.00
47576;DHT22;33304;52.456;13.328;2022-08-21T15:03:33;30.60;1.00
47576;DHT22;33304;52.456;13.328;2022-08-21T15:06:04;29.80;1.00
47576;DHT22;33304;52.456;13.328;2022-08-21T15:08:31;29.20;1.00
47576;DHT22;33304;52.456;13.328;2022-08-21T15:10:59;28.60;1.00
47576;DHT22;33304;52.456;13.328;2022-08-21T15:13:28;27.80;1.00
47576;DHT22;33304;52.456;13.328;2022-08-21T15:15:56;27.70;1.00
47576;DHT22;33304;52.456;13.328;2022-08-21T15:18:28;27.30;1.00
47576;DHT22;33304;52.456;13.328;2022-08-21T15:20:56;27.00;1.00
47576;DHT22;33304;52.456;13.328;2022-08-21T15:23:23;27.00;1.00
47576;DHT22;33304;52.456;13.328;2022-08-21T15:25:52;26.70;1.00
47576;DHT22;33304;52.456;13.328;2022-08-21T15:28:20;26.70;1.00
47576;DHT22;33304;52.456;13.328;2022-08-21T15:30:49;26.80;1.10
47576;DHT22;33304;52.456;13.328;2022-08-21T15:33:16;26.80;1.00
47576;DHT22;33304;52.456;13.328;2022-08-21T15:35:46;26.50;1.20
47576;DHT22;33304;52.456;13.328;2022-08-21T15:38:13;26.50;1.00